Guildford, United Kingdom

12:53 AM GMT on February 01, 2015 (GMT +0000)
Busbridge, Godalming, UK | Change Station
CLOSE
Current Station
Personal Weather Station
Location: Godalming, SURREY
Elevation: 300 ft
Nearby Weather Stations

Elev 300 ft 51.18 °N, 0.62 °W | Updated 22 seconds ago

Partly Cloudy
Partly Cloudy
35.6 °F
Feels Like 32 °F
N
3.8
Wind Variable Wind from North
Gusts 7.6 mph

Today
High -- | Low -- °F
--% Chance of Precip.
Yesterday
High -- | Low -- °F
Precip. -- in
7:40 AM 4:52 PM
Waxing Gibbous, 92% visible
Pressure 29.36 in
Visibility 6.2 miles
Clouds Few 4100 ft
Windchill 32 °F
Dew Point 24 °F
Humidity 62%
Rainfall 0.00 in
Snow Depth Not available.
UV 0 out of 12
Pollen Not available.
Air Quality Not available.
Flu Activity Not available.
METAR EGLL 010020Z 30011KT 9999 FEW041 03/M02 Q0994 NOSIG

More Conditions Fewer Conditions

Pressure 29.36 in
Visibility 6.2 miles
Clouds Few 4100 ft
Windchill 32 °F
Dew Point 24 °F
Humidity 62%
Rainfall 0.00 in
Snow Depth Not available.
UV 0 out of 12
Pollen Not available.
Air Quality Not available.
Flu Activity Not available.
METAR EGLL 010020Z 30011KT 9999 FEW041 03/M02 Q0994 NOSIG

More Conditions Fewer Conditions

10-Day Weather Forecast

Almanac

Astronomy

Feb. 01, 2015 Rise Set
Actual Time
Civil Twilight
Nautical Twilight
Astronomical Twilight
Moon
Length of Visible Light
Length of Day
Tomorrow will be .
, % of the Moon is Illuminated

Today's Extremes

Country Highs Country Lows

Community

WunderPhotos

Upload Photos

1,792,265 photos uploaded!

WunderBlogs® & News

Nearby

Air Quality

  Air Quality AQ Index Pollutant
Not available.

Snow Depth

Station Depth Elevation

Earthquake Activity

City Distance Mag. Time & Date
Minimum magnitude displayed is 2.5.

Coastal Water Temperatures

Place Temperature

Nearby Weather Stations